sensor_id;sensor_type;location;lat;lon;timestamp;P1;durP1;ratioP1;P2;durP2;ratioP2
16352;SDS011;8286;51.274;9.542;2023-04-25T00:01:03;3.10;;;2.80;;
16352;SDS011;8286;51.274;9.542;2023-04-25T00:03:29;3.63;;;2.87;;
16352;SDS011;8286;51.274;9.542;2023-04-25T00:05:58;7.63;;;3.10;;
16352;SDS011;8286;51.274;9.542;2023-04-25T00:08:28;2.90;;;2.70;;
16352;SDS011;8286;51.274;9.542;2023-04-25T00:10:54;3.63;;;2.97;;
16352;SDS011;8286;51.274;9.542;2023-04-25T00:13:21;6.73;;;2.63;;
16352;SDS011;8286;51.274;9.542;2023-04-25T00:15:47;4.47;;;3.00;;
16352;SDS011;8286;51.274;9.542;2023-04-25T00:18:15;3.30;;;3.00;;
16352;SDS011;8286;51.274;9.542;2023-04-25T00:20:42;4.57;;;3.00;;
16352;SDS011;8286;51.274;9.542;2023-04-25T00:23:10;6.53;;;3.00;;
16352;SDS011;8286;51.274;9.542;2023-04-25T00:25:37;4.67;;;3.20;;
16352;SDS011;8286;51.274;9.542;2023-04-25T00:28:03;5.93;;;3.20;;
16352;SDS011;8286;51.274;9.542;2023-04-25T00:30:30;4.47;;;2.90;;
16352;SDS011;8286;51.274;9.542;2023-04-25T00:32:56;5.70;;;3.47;;
16352;SDS011;8286;51.274;9.542;2023-04-25T00:35:23;4.57;;;3.43;;
16352;SDS011;8286;51.274;9.542;2023-04-25T00:37:49;4.23;;;3.20;;
16352;SDS011;8286;51.274;9.542;2023-04-25T00:40:17;9.63;;;3.33;;
16352;SDS011;8286;51.274;9.542;2023-04-25T00:42:44;5.67;;;3.33;;
16352;SDS011;8286;51.274;9.542;2023-04-25T00:45:12;4.97;;;3.37;;
16352;SDS011;8286;51.274;9.542;2023-04-25T00:47:40;6.20;;;3.30;;
16352;SDS011;8286;51.274;9.542;2023-04-25T00:50:07;6.20;;;3.40;;
16352;SDS011;8286;51.274;9.542;2023-04-25T00:52:34;5.73;;;3.50;;
16352;SDS011;8286;51.274;9.542;2023-04-25T00:55:01;6.70;;;3.47;;
16352;SDS011;8286;51.274;9.542;2023-04-25T00:57:29;3.30;;;2.93;;
16352;SDS011;8286;51.274;9.542;2023-04-25T00:59:55;6.27;;;3.20;;
16352;SDS011;8286;51.274;9.542;2023-04-25T01:02:22;5.60;;;3.33;;
16352;SDS011;8286;51.274;9.542;2023-04-25T01:04:48;4.90;;;3.30;;
16352;SDS011;8286;51.274;9.542;2023-04-25T01:07:15;4.40;;;3.53;;
16352;SDS011;8286;51.274;9.542;2023-04-25T01:09:42;4.50;;;3.93;;
16352;SDS011;8286;51.274;9.542;2023-04-25T01:12:08;5.43;;;3.50;;
16352;SDS011;8286;51.274;9.542;2023-04-25T01:14:36;4.10;;;3.10;;
16352;SDS011;8286;51.274;9.542;2023-04-25T01:17:03;7.30;;;4.13;;
16352;SDS011;8286;51.274;9.542;2023-04-25T01:19:29;4.73;;;2.80;;
16352;SDS011;8286;51.274;9.542;2023-04-25T01:21:58;3.93;;;3.40;;
16352;SDS011;8286;51.274;9.542;2023-04-25T01:24:24;3.30;;;3.00;;
16352;SDS011;8286;51.274;9.542;2023-04-25T01:26:51;8.30;;;3.50;;
16352;SDS011;8286;51.274;9.542;2023-04-25T01:29:19;7.70;;;3.83;;
16352;SDS011;8286;51.274;9.542;2023-04-25T01:31:46;4.60;;;3.50;;
16352;SDS011;8286;51.274;9.542;2023-04-25T01:34:12;7.97;;;3.97;;
16352;SDS011;8286;51.274;9.542;2023-04-25T01:36:39;5.50;;;3.37;;
16352;SDS011;8286;51.274;9.542;2023-04-25T01:39:07;7.77;;;4.10;;
16352;SDS011;8286;51.274;9.542;2023-04-25T01:41:34;4.10;;;3.50;;
16352;SDS011;8286;51.274;9.542;2023-04-25T01:44:00;5.73;;;3.60;;
16352;SDS011;8286;51.274;9.542;2023-04-25T01:46:28;5.37;;;3.43;;
16352;SDS011;8286;51.274;9.542;2023-04-25T01:48:55;4.27;;;3.70;;
16352;SDS011;8286;51.274;9.542;2023-04-25T01:51:22;4.23;;;3.37;;
16352;SDS011;8286;51.274;9.542;2023-04-25T01:53:48;4.27;;;3.60;;
16352;SDS011;8286;51.274;9.542;2023-04-25T01:56:17;4.13;;;3.40;;
16352;SDS011;8286;51.274;9.542;2023-04-25T01:58:43;4.87;;;3.53;;
16352;SDS011;8286;51.274;9.542;2023-04-25T02:01:10;4.40;;;3.07;;
16352;SDS011;8286;51.274;9.542;2023-04-25T02:03:36;7.90;;;3.50;;
16352;SDS011;8286;51.274;9.542;2023-04-25T02:06:03;7.50;;;3.83;;
16352;SDS011;8286;51.274;9.542;2023-04-25T02:08:29;4.87;;;3.50;;
16352;SDS011;8286;51.274;9.542;2023-04-25T02:10:56;10.13;;;3.50;;
16352;SDS011;8286;51.274;9.542;2023-04-25T02:13:24;9.70;;;4.60;;
16352;SDS011;8286;51.274;9.542;2023-04-25T02:15:50;7.47;;;3.63;;
16352;SDS011;8286;51.274;9.542;2023-04-25T02:18:17;9.23;;;4.67;;
16352;SDS011;8286;51.274;9.542;2023-04-25T02:20:44;7.03;;;3.90;;
16352;SDS011;8286;51.274;9.542;2023-04-25T02:23:11;3.60;;;3.30;;
16352;SDS011;8286;51.274;9.542;2023-04-25T02:25:38;10.50;;;4.00;;
16352;SDS011;8286;51.274;9.542;2023-04-25T02:28:04;5.57;;;3.67;;
16352;SDS011;8286;51.274;9.542;2023-04-25T02:30:32;4.40;;;3.37;;
16352;SDS011;8286;51.274;9.542;2023-04-25T02:33:00;4.73;;;3.63;;
16352;SDS011;8286;51.274;9.542;2023-04-25T02:35:26;7.80;;;4.20;;
16352;SDS011;8286;51.274;9.542;2023-04-25T02:37:53;7.57;;;4.23;;
16352;SDS011;8286;51.274;9.542;2023-04-25T02:40:20;5.57;;;4.37;;
16352;SDS011;8286;51.274;9.542;2023-04-25T02:42:46;8.07;;;4.73;;
16352;SDS011;8286;51.274;9.542;2023-04-25T02:45:13;5.77;;;4.63;;
16352;SDS011;8286;51.274;9.542;2023-04-25T02:47:41;10.43;;;4.80;;
16352;SDS011;8286;51.274;9.542;2023-04-25T02:50:07;5.40;;;4.60;;
16352;SDS011;8286;51.274;9.542;2023-04-25T02:52:34;8.70;;;5.00;;
16352;SDS011;8286;51.274;9.542;2023-04-25T02:55:01;14.07;;;4.83;;
16352;SDS011;8286;51.274;9.542;2023-04-25T02:57:28;8.27;;;5.17;;
16352;SDS011;8286;51.274;9.542;2023-04-25T02:59:54;13.23;;;5.53;;
16352;SDS011;8286;51.274;9.542;2023-04-25T03:02:21;9.73;;;5.13;;
16352;SDS011;8286;51.274;9.542;2023-04-25T03:04:48;12.23;;;5.07;;
16352;SDS011;8286;51.274;9.542;2023-04-25T03:07:15;8.73;;;4.93;;
16352;SDS011;8286;51.274;9.542;2023-04-25T03:09:41;10.20;;;5.50;;
16352;SDS011;8286;51.274;9.542;2023-04-25T03:12:08;11.20;;;5.17;;
16352;SDS011;8286;51.274;9.542;2023-04-25T03:14:35;7.10;;;4.17;;
16352;SDS011;8286;51.274;9.542;2023-04-25T03:17:01;7.33;;;4.70;;
16352;SDS011;8286;51.274;9.542;2023-04-25T03:19:28;12.37;;;4.90;;
16352;SDS011;8286;51.274;9.542;2023-04-25T03:21:56;6.47;;;4.70;;
16352;SDS011;8286;51.274;9.542;2023-04-25T03:24:22;5.57;;;3.97;;
16352;SDS011;8286;51.274;9.542;2023-04-25T03:26:49;9.53;;;5.10;;
16352;SDS011;8286;51.274;9.542;2023-04-25T03:29:15;9.63;;;4.87;;
16352;SDS011;8286;51.274;9.542;2023-04-25T03:31:42;7.87;;;4.57;;
16352;SDS011;8286;51.274;9.542;2023-04-25T03:34:08;6.73;;;4.00;;
16352;SDS011;8286;51.274;9.542;2023-04-25T03:36:35;8.83;;;4.47;;
16352;SDS011;8286;51.274;9.542;2023-04-25T03:39:02;6.63;;;4.70;;
16352;SDS011;8286;51.274;9.542;2023-04-25T03:41:29;5.63;;;3.77;;
16352;SDS011;8286;51.274;9.542;2023-04-25T03:43:55;7.80;;;4.47;;
16352;SDS011;8286;51.274;9.542;2023-04-25T03:46:22;7.23;;;3.87;;
16352;SDS011;8286;51.274;9.542;2023-04-25T03:48:48;7.20;;;3.83;;
16352;SDS011;8286;51.274;9.542;2023-04-25T03:51:15;5.40;;;3.93;;
16352;SDS011;8286;51.274;9.542;2023-04-25T03:53:41;8.97;;;4.23;;
16352;SDS011;8286;51.274;9.542;2023-04-25T03:56:09;6.23;;;4.20;;
16352;SDS011;8286;51.274;9.542;2023-04-25T03:58:36;6.37;;;4.37;;
16352;SDS011;8286;51.274;9.542;2023-04-25T04:01:02;6.10;;;3.70;;
16352;SDS011;8286;51.274;9.542;2023-04-25T04:03:32;10.63;;;3.57;;
16352;SDS011;8286;51.274;9.542;2023-04-25T04:05:59;6.07;;;3.43;;
16352;SDS011;8286;51.274;9.542;2023-04-25T04:08:25;8.13;;;3.80;;
16352;SDS011;8286;51.274;9.542;2023-04-25T04:10:51;8.97;;;4.10;;
16352;SDS011;8286;51.274;9.542;2023-04-25T04:13:19;6.87;;;3.70;;
16352;SDS011;8286;51.274;9.542;2023-04-25T04:15:46;6.83;;;4.03;;
16352;SDS011;8286;51.274;9.542;2023-04-25T04:18:12;10.33;;;4.10;;
16352;SDS011;8286;51.274;9.542;2023-04-25T04:20:39;10.63;;;4.67;;
16352;SDS011;8286;51.274;9.542;2023-04-25T04:23:05;7.87;;;3.53;;
16352;SDS011;8286;51.274;9.542;2023-04-25T04:25:32;8.63;;;3.20;;
16352;SDS011;8286;51.274;9.542;2023-04-25T04:27:59;8.13;;;3.63;;
16352;SDS011;8286;51.274;9.542;2023-04-25T04:30:27;13.27;;;4.10;;
16352;SDS011;8286;51.274;9.542;2023-04-25T04:32:54;10.77;;;4.27;;
16352;SDS011;8286;51.274;9.542;2023-04-25T04:35:21;7.97;;;4.00;;
16352;SDS011;8286;51.274;9.542;2023-04-25T04:37:48;5.43;;;3.60;;
16352;SDS011;8286;51.274;9.542;2023-04-25T04:40:15;6.27;;;3.90;;
16352;SDS011;8286;51.274;9.542;2023-04-25T04:42:42;5.90;;;3.63;;
16352;SDS011;8286;51.274;9.542;2023-04-25T04:45:10;7.03;;;3.83;;
16352;SDS011;8286;51.274;9.542;2023-04-25T04:47:38;8.00;;;4.77;;
16352;SDS011;8286;51.274;9.542;2023-04-25T04:50:05;9.07;;;4.20;;
16352;SDS011;8286;51.274;9.542;2023-04-25T04:52:33;6.47;;;4.87;;
16352;SDS011;8286;51.274;9.542;2023-04-25T04:55:00;9.17;;;4.13;;
16352;SDS011;8286;51.274;9.542;2023-04-25T04:57:27;7.10;;;3.87;;
16352;SDS011;8286;51.274;9.542;2023-04-25T04:59:53;10.07;;;4.60;;
16352;SDS011;8286;51.274;9.542;2023-04-25T05:02:20;7.40;;;4.07;;
16352;SDS011;8286;51.274;9.542;2023-04-25T05:04:48;9.43;;;4.40;;
16352;SDS011;8286;51.274;9.542;2023-04-25T05:07:15;7.27;;;4.43;;
16352;SDS011;8286;51.274;9.542;2023-04-25T05:09:41;4.80;;;4.30;;
16352;SDS011;8286;51.274;9.542;2023-04-25T05:12:08;14.87;;;4.50;;
16352;SDS011;8286;51.274;9.542;2023-04-25T05:14:35;7.17;;;4.30;;
16352;SDS011;8286;51.274;9.542;2023-04-25T05:17:01;8.83;;;4.60;;
16352;SDS011;8286;51.274;9.542;2023-04-25T05:19:29;7.83;;;4.63;;
16352;SDS011;8286;51.274;9.542;2023-04-25T05:21:57;10.63;;;4.93;;
16352;SDS011;8286;51.274;9.542;2023-04-25T05:24:24;10.00;;;4.80;;
16352;SDS011;8286;51.274;9.542;2023-04-25T05:26:50;9.63;;;5.17;;
16352;SDS011;8286;51.274;9.542;2023-04-25T05:29:17;8.83;;;5.77;;
16352;SDS011;8286;51.274;9.542;2023-04-25T05:31:43;12.33;;;4.97;;
16352;SDS011;8286;51.274;9.542;2023-04-25T05:34:10;12.27;;;5.03;;
16352;SDS011;8286;51.274;9.542;2023-04-25T05:36:36;11.67;;;5.10;;
16352;SDS011;8286;51.274;9.542;2023-04-25T05:39:04;14.87;;;5.13;;
16352;SDS011;8286;51.274;9.542;2023-04-25T05:41:31;11.03;;;5.10;;
16352;SDS011;8286;51.274;9.542;2023-04-25T05:43:58;11.03;;;4.67;;
16352;SDS011;8286;51.274;9.542;2023-04-25T05:46:24;6.67;;;4.67;;
16352;SDS011;8286;51.274;9.542;2023-04-25T05:48:51;10.03;;;5.20;;
16352;SDS011;8286;51.274;9.542;2023-04-25T05:51:17;8.50;;;5.23;;
16352;SDS011;8286;51.274;9.542;2023-04-25T05:53:44;11.77;;;5.00;;
16352;SDS011;8286;51.274;9.542;2023-04-25T05:56:12;11.17;;;5.27;;
16352;SDS011;8286;51.274;9.542;2023-04-25T05:58:38;8.17;;;4.83;;
16352;SDS011;8286;51.274;9.542;2023-04-25T06:01:05;13.03;;;5.37;;
16352;SDS011;8286;51.274;9.542;2023-04-25T06:03:31;10.93;;;5.07;;
16352;SDS011;8286;51.274;9.542;2023-04-25T06:05:58;6.23;;;4.47;;
16352;SDS011;8286;51.274;9.542;2023-04-25T06:08:24;10.87;;;5.87;;
16352;SDS011;8286;51.274;9.542;2023-04-25T06:10:51;8.23;;;5.17;;
16352;SDS011;8286;51.274;9.542;2023-04-25T06:13:19;7.23;;;4.53;;
16352;SDS011;8286;51.274;9.542;2023-04-25T06:15:45;9.33;;;5.17;;
16352;SDS011;8286;51.274;9.542;2023-04-25T06:18:12;9.50;;;4.60;;
16352;SDS011;8286;51.274;9.542;2023-04-25T06:20:38;8.80;;;5.30;;
16352;SDS011;8286;51.274;9.542;2023-04-25T06:23:05;9.83;;;4.83;;
16352;SDS011;8286;51.274;9.542;2023-04-25T06:25:31;6.67;;;2.93;;
16352;SDS011;8286;51.274;9.542;2023-04-25T06:27:58;4.87;;;2.30;;
16352;SDS011;8286;51.274;9.542;2023-04-25T06:30:26;6.03;;;2.73;;
16352;SDS011;8286;51.274;9.542;2023-04-25T06:32:52;3.27;;;2.13;;
16352;SDS011;8286;51.274;9.542;2023-04-25T06:35:19;4.80;;;1.80;;
16352;SDS011;8286;51.274;9.542;2023-04-25T06:37:46;5.13;;;2.13;;
16352;SDS011;8286;51.274;9.542;2023-04-25T06:40:13;6.07;;;2.20;;
16352;SDS011;8286;51.274;9.542;2023-04-25T06:42:39;8.47;;;2.70;;
16352;SDS011;8286;51.274;9.542;2023-04-25T06:45:06;3.93;;;2.17;;
16352;SDS011;8286;51.274;9.542;2023-04-25T06:47:35;6.27;;;2.47;;
16352;SDS011;8286;51.274;9.542;2023-04-25T06:50:01;4.13;;;2.43;;
16352;SDS011;8286;51.274;9.542;2023-04-25T06:52:29;6.07;;;2.60;;
16352;SDS011;8286;51.274;9.542;2023-04-25T06:54:55;8.90;;;2.87;;
16352;SDS011;8286;51.274;9.542;2023-04-25T06:57:22;7.07;;;2.60;;
16352;SDS011;8286;51.274;9.542;2023-04-25T06:59:48;10.03;;;2.67;;
16352;SDS011;8286;51.274;9.542;2023-04-25T07:02:15;6.20;;;2.53;;
16352;SDS011;8286;51.274;9.542;2023-04-25T07:04:42;7.50;;;2.67;;
16352;SDS011;8286;51.274;9.542;2023-04-25T07:07:10;10.93;;;2.67;;
16352;SDS011;8286;51.274;9.542;2023-04-25T07:09:37;13.07;;;3.07;;
16352;SDS011;8286;51.274;9.542;2023-04-25T07:12:04;7.77;;;3.50;;
16352;SDS011;8286;51.274;9.542;2023-04-25T07:14:30;11.10;;;3.20;;
16352;SDS011;8286;51.274;9.542;2023-04-25T07:16:57;7.87;;;2.50;;
16352;SDS011;8286;51.274;9.542;2023-04-25T07:19:23;11.63;;;3.83;;
16352;SDS011;8286;51.274;9.542;2023-04-25T07:21:53;6.57;;;3.40;;
16352;SDS011;8286;51.274;9.542;2023-04-25T07:24:19;7.40;;;2.73;;
16352;SDS011;8286;51.274;9.542;2023-04-25T07:26:46;8.07;;;3.50;;
16352;SDS011;8286;51.274;9.542;2023-04-25T07:29:12;7.93;;;2.97;;
16352;SDS011;8286;51.274;9.542;2023-04-25T07:31:39;9.13;;;2.67;;
16352;SDS011;8286;51.274;9.542;2023-04-25T07:34:05;13.70;;;3.03;;
16352;SDS011;8286;51.274;9.542;2023-04-25T07:36:32;7.13;;;2.83;;
16352;SDS011;8286;51.274;9.542;2023-04-25T07:39:00;8.40;;;3.23;;
16352;SDS011;8286;51.274;9.542;2023-04-25T07:41:26;11.93;;;3.07;;
16352;SDS011;8286;51.274;9.542;2023-04-25T07:43:53;10.13;;;2.67;;
16352;SDS011;8286;51.274;9.542;2023-04-25T07:46:19;6.80;;;3.03;;
16352;SDS011;8286;51.274;9.542;2023-04-25T07:48:46;12.03;;;3.00;;
16352;SDS011;8286;51.274;9.542;2023-04-25T07:51:12;8.07;;;3.07;;
16352;SDS011;8286;51.274;9.542;2023-04-25T07:53:39;11.40;;;3.17;;
16352;SDS011;8286;51.274;9.542;2023-04-25T07:56:07;7.03;;;3.20;;
16352;SDS011;8286;51.274;9.542;2023-04-25T07:58:34;7.37;;;3.20;;
16352;SDS011;8286;51.274;9.542;2023-04-25T08:01:00;5.17;;;2.80;;
16352;SDS011;8286;51.274;9.542;2023-04-25T08:03:27;8.63;;;2.63;;
16352;SDS011;8286;51.274;9.542;2023-04-25T08:05:53;7.63;;;3.70;;
16352;SDS011;8286;51.274;9.542;2023-04-25T08:08:20;9.87;;;2.97;;
16352;SDS011;8286;51.274;9.542;2023-04-25T08:10:47;12.67;;;3.27;;
16352;SDS011;8286;51.274;9.542;2023-04-25T08:13:15;9.37;;;3.10;;
16352;SDS011;8286;51.274;9.542;2023-04-25T08:15:41;13.77;;;2.93;;
16352;SDS011;8286;51.274;9.542;2023-04-25T08:18:08;8.43;;;3.17;;
16352;SDS011;8286;51.274;9.542;2023-04-25T08:20:34;10.50;;;2.60;;
16352;SDS011;8286;51.274;9.542;2023-04-25T08:23:01;12.70;;;3.13;;
16352;SDS011;8286;51.274;9.542;2023-04-25T08:25:27;10.73;;;2.90;;
16352;SDS011;8286;51.274;9.542;2023-04-25T08:27:54;6.43;;;2.77;;
16352;SDS011;8286;51.274;9.542;2023-04-25T08:30:22;8.53;;;2.77;;
16352;SDS011;8286;51.274;9.542;2023-04-25T08:32:49;8.00;;;2.60;;
16352;SDS011;8286;51.274;9.542;2023-04-25T08:35:15;7.43;;;2.43;;
16352;SDS011;8286;51.274;9.542;2023-04-25T08:37:42;8.77;;;2.87;;
16352;SDS011;8286;51.274;9.542;2023-04-25T08:40:09;8.30;;;2.30;;
16352;SDS011;8286;51.274;9.542;2023-04-25T08:42:38;9.00;;;2.63;;
16352;SDS011;8286;51.274;9.542;2023-04-25T08:45:06;10.23;;;2.97;;
16352;SDS011;8286;51.274;9.542;2023-04-25T08:47:35;7.93;;;2.83;;
16352;SDS011;8286;51.274;9.542;2023-04-25T08:50:04;6.40;;;2.70;;
16352;SDS011;8286;51.274;9.542;2023-04-25T08:52:32;8.20;;;3.03;;
16352;SDS011;8286;51.274;9.542;2023-04-25T08:55:02;8.17;;;2.60;;
16352;SDS011;8286;51.274;9.542;2023-04-25T08:57:29;5.33;;;2.03;;
16352;SDS011;8286;51.274;9.542;2023-04-25T08:59:57;7.30;;;2.87;;
16352;SDS011;8286;51.274;9.542;2023-04-25T09:02:24;11.17;;;2.80;;
16352;SDS011;8286;51.274;9.542;2023-04-25T09:04:52;9.67;;;2.20;;
16352;SDS011;8286;51.274;9.542;2023-04-25T09:07:21;8.87;;;2.80;;
16352;SDS011;8286;51.274;9.542;2023-04-25T09:09:47;9.17;;;2.20;;
16352;SDS011;8286;51.274;9.542;2023-04-25T09:12:14;6.03;;;2.87;;
16352;SDS011;8286;51.274;9.542;2023-04-25T09:14:40;4.77;;;2.50;;
16352;SDS011;8286;51.274;9.542;2023-04-25T09:17:08;13.97;;;2.60;;
16352;SDS011;8286;51.274;9.542;2023-04-25T09:19:35;4.77;;;3.03;;
16352;SDS011;8286;51.274;9.542;2023-04-25T09:22:06;6.90;;;2.23;;
16352;SDS011;8286;51.274;9.542;2023-04-25T09:24:34;3.30;;;1.97;;
16352;SDS011;8286;51.274;9.542;2023-04-25T09:27:04;4.93;;;2.10;;
16352;SDS011;8286;51.274;9.542;2023-04-25T09:29:32;4.13;;;1.70;;
16352;SDS011;8286;51.274;9.542;2023-04-25T09:32:16;4.57;;;1.80;;
16352;SDS011;8286;51.274;9.542;2023-04-25T09:34:46;5.40;;;2.10;;
16352;SDS011;8286;51.274;9.542;2023-04-25T09:37:18;7.57;;;2.30;;
16352;SDS011;8286;51.274;9.542;2023-04-25T09:39:45;6.73;;;2.37;;
16352;SDS011;8286;51.274;9.542;2023-04-25T09:42:12;7.73;;;2.67;;
16352;SDS011;8286;51.274;9.542;2023-04-25T09:44:41;5.33;;;2.07;;
16352;SDS011;8286;51.274;9.542;2023-04-25T09:47:09;10.87;;;2.40;;
16352;SDS011;8286;51.274;9.542;2023-04-25T09:49:38;6.00;;;2.10;;
16352;SDS011;8286;51.274;9.542;2023-04-25T09:52:05;7.87;;;2.20;;
16352;SDS011;8286;51.274;9.542;2023-04-25T09:54:33;7.93;;;2.20;;
16352;SDS011;8286;51.274;9.542;2023-04-25T09:57:00;9.17;;;2.60;;
16352;SDS011;8286;51.274;9.542;2023-04-25T09:59:32;6.37;;;2.53;;
16352;SDS011;8286;51.274;9.542;2023-04-25T10:02:01;11.67;;;2.67;;
16352;SDS011;8286;51.274;9.542;2023-04-25T10:04:28;8.30;;;2.60;;
16352;SDS011;8286;51.274;9.542;2023-04-25T10:06:58;10.17;;;2.60;;
16352;SDS011;8286;51.274;9.542;2023-04-25T10:09:25;6.50;;;2.37;;
16352;SDS011;8286;51.274;9.542;2023-04-25T10:11:55;12.83;;;2.50;;
16352;SDS011;8286;51.274;9.542;2023-04-25T10:14:22;6.87;;;2.20;;
16352;SDS011;8286;51.274;9.542;2023-04-25T10:16:50;7.17;;;2.67;;
16352;SDS011;8286;51.274;9.542;2023-04-25T10:19:18;7.23;;;1.90;;
16352;SDS011;8286;51.274;9.542;2023-04-25T10:21:46;6.33;;;2.00;;
16352;SDS011;8286;51.274;9.542;2023-04-25T10:24:16;6.20;;;2.20;;
16352;SDS011;8286;51.274;9.542;2023-04-25T10:26:43;3.23;;;1.93;;
16352;SDS011;8286;51.274;9.542;2023-04-25T10:29:11;5.73;;;2.17;;
16352;SDS011;8286;51.274;9.542;2023-04-25T10:31:44;4.27;;;1.67;;
16352;SDS011;8286;51.274;9.542;2023-04-25T10:34:11;2.47;;;1.63;;
16352;SDS011;8286;51.274;9.542;2023-04-25T10:36:37;3.77;;;1.83;;
16352;SDS011;8286;51.274;9.542;2023-04-25T10:39:05;6.93;;;2.03;;
16352;SDS011;8286;51.274;9.542;2023-04-25T10:41:45;5.50;;;2.50;;
16352;SDS011;8286;51.274;9.542;2023-04-25T10:44:13;6.30;;;1.97;;
16352;SDS011;8286;51.274;9.542;2023-04-25T10:46:40;6.97;;;2.13;;
16352;SDS011;8286;51.274;9.542;2023-04-25T10:49:08;4.50;;;1.63;;
16352;SDS011;8286;51.274;9.542;2023-04-25T10:51:35;6.47;;;1.90;;
16352;SDS011;8286;51.274;9.542;2023-04-25T10:54:03;2.83;;;1.50;;
16352;SDS011;8286;51.274;9.542;2023-04-25T10:56:30;6.10;;;1.70;;
16352;SDS011;8286;51.274;9.542;2023-04-25T10:59:07;4.07;;;1.60;;
16352;SDS011;8286;51.274;9.542;2023-04-25T11:01:37;4.17;;;1.90;;
16352;SDS011;8286;51.274;9.542;2023-04-25T11:04:04;4.47;;;2.13;;
16352;SDS011;8286;51.274;9.542;2023-04-25T11:06:34;6.10;;;2.00;;
16352;SDS011;8286;51.274;9.542;2023-04-25T11:09:08;4.17;;;1.70;;
16352;SDS011;8286;51.274;9.542;2023-04-25T11:11:38;5.97;;;1.90;;
16352;SDS011;8286;51.274;9.542;2023-04-25T11:14:05;5.80;;;1.77;;
16352;SDS011;8286;51.274;9.542;2023-04-25T11:16:31;5.53;;;1.80;;
16352;SDS011;8286;51.274;9.542;2023-04-25T11:18:59;6.03;;;2.07;;
16352;SDS011;8286;51.274;9.542;2023-04-25T11:21:26;6.87;;;1.80;;
16352;SDS011;8286;51.274;9.542;2023-04-25T11:23:52;6.03;;;1.60;;
16352;SDS011;8286;51.274;9.542;2023-04-25T11:26:19;4.83;;;1.30;;
16352;SDS011;8286;51.274;9.542;2023-04-25T11:28:46;3.53;;;1.60;;
16352;SDS011;8286;51.274;9.542;2023-04-25T11:31:13;4.07;;;1.60;;
16352;SDS011;8286;51.274;9.542;2023-04-25T11:33:39;6.20;;;1.47;;
16352;SDS011;8286;51.274;9.542;2023-04-25T11:36:07;6.03;;;1.73;;
16352;SDS011;8286;51.274;9.542;2023-04-25T11:38:34;5.17;;;1.57;;
16352;SDS011;8286;51.274;9.542;2023-04-25T11:41:01;3.30;;;1.73;;
16352;SDS011;8286;51.274;9.542;2023-04-25T11:43:27;6.00;;;1.60;;
16352;SDS011;8286;51.274;9.542;2023-04-25T11:45:54;7.90;;;1.63;;
16352;SDS011;8286;51.274;9.542;2023-04-25T11:48:20;2.80;;;1.60;;
16352;SDS011;8286;51.274;9.542;2023-04-25T11:50:47;3.17;;;1.40;;
16352;SDS011;8286;51.274;9.542;2023-04-25T11:53:15;8.37;;;2.00;;
16352;SDS011;8286;51.274;9.542;2023-04-25T11:55:43;8.40;;;1.30;;
16352;SDS011;8286;51.274;9.542;2023-04-25T11:58:10;2.97;;;1.20;;
16352;SDS011;8286;51.274;9.542;2023-04-25T12:00:38;3.80;;;1.30;;
16352;SDS011;8286;51.274;9.542;2023-04-25T12:03:08;4.03;;;1.50;;
16352;SDS011;8286;51.274;9.542;2023-04-25T12:05:35;5.07;;;1.53;;
16352;SDS011;8286;51.274;9.542;2023-04-25T12:08:11;2.23;;;1.27;;
16352;SDS011;8286;51.274;9.542;2023-04-25T12:10:41;4.90;;;1.90;;
16352;SDS011;8286;51.274;9.542;2023-04-25T12:13:17;2.47;;;1.13;;
16352;SDS011;8286;51.274;9.542;2023-04-25T12:15:44;3.23;;;1.50;;
16352;SDS011;8286;51.274;9.542;2023-04-25T12:18:11;2.90;;;1.57;;
16352;SDS011;8286;51.274;9.542;2023-04-25T12:20:37;3.43;;;1.40;;
16352;SDS011;8286;51.274;9.542;2023-04-25T12:23:05;5.67;;;1.50;;
16352;SDS011;8286;51.274;9.542;2023-04-25T12:25:35;5.77;;;1.63;;
16352;SDS011;8286;51.274;9.542;2023-04-25T12:28:14;1.60;;;1.30;;
16352;SDS011;8286;51.274;9.542;2023-04-25T12:30:57;2.00;;;1.63;;
16352;SDS011;8286;51.274;9.542;2023-04-25T12:33:26;3.93;;;1.50;;
16352;SDS011;8286;51.274;9.542;2023-04-25T12:35:53;3.03;;;1.60;;
16352;SDS011;8286;51.274;9.542;2023-04-25T12:38:23;3.87;;;1.60;;
16352;SDS011;8286;51.274;9.542;2023-04-25T12:40:50;2.80;;;1.37;;
16352;SDS011;8286;51.274;9.542;2023-04-25T12:43:18;2.40;;;1.47;;
16352;SDS011;8286;51.274;9.542;2023-04-25T12:45:46;4.73;;;1.67;;
16352;SDS011;8286;51.274;9.542;2023-04-25T12:48:13;4.20;;;1.57;;
16352;SDS011;8286;51.274;9.542;2023-04-25T12:50:40;3.03;;;1.53;;
16352;SDS011;8286;51.274;9.542;2023-04-25T12:53:07;3.87;;;1.30;;
16352;SDS011;8286;51.274;9.542;2023-04-25T12:55:33;2.47;;;1.40;;
16352;SDS011;8286;51.274;9.542;2023-04-25T12:58:00;4.13;;;1.30;;
16352;SDS011;8286;51.274;9.542;2023-04-25T13:00:28;4.30;;;1.70;;
16352;SDS011;8286;51.274;9.542;2023-04-25T13:02:54;5.80;;;2.43;;
16352;SDS011;8286;51.274;9.542;2023-04-25T13:05:21;6.23;;;2.20;;
16352;SDS011;8286;51.274;9.542;2023-04-25T13:07:48;5.23;;;1.70;;
16352;SDS011;8286;51.274;9.542;2023-04-25T13:10:14;7.20;;;2.40;;
16352;SDS011;8286;51.274;9.542;2023-04-25T13:12:41;5.10;;;2.00;;
16352;SDS011;8286;51.274;9.542;2023-04-25T13:15:08;6.50;;;2.03;;
16352;SDS011;8286;51.274;9.542;2023-04-25T13:17:37;2.37;;;1.33;;
16352;SDS011;8286;51.274;9.542;2023-04-25T13:20:05;6.77;;;2.17;;
16352;SDS011;8286;51.274;9.542;2023-04-25T13:22:34;4.70;;;1.40;;
16352;SDS011;8286;51.274;9.542;2023-04-25T13:25:01;2.57;;;1.53;;
16352;SDS011;8286;51.274;9.542;2023-04-25T13:27:28;5.83;;;1.60;;
16352;SDS011;8286;51.274;9.542;2023-04-25T13:29:57;2.90;;;1.50;;
16352;SDS011;8286;51.274;9.542;2023-04-25T13:32:23;3.03;;;1.40;;
16352;SDS011;8286;51.274;9.542;2023-04-25T13:34:53;5.50;;;1.50;;
16352;SDS011;8286;51.274;9.542;2023-04-25T13:37:19;4.73;;;1.27;;
16352;SDS011;8286;51.274;9.542;2023-04-25T13:39:49;1.47;;;1.20;;
16352;SDS011;8286;51.274;9.542;2023-04-25T13:42:15;2.77;;;1.30;;
16352;SDS011;8286;51.274;9.542;2023-04-25T13:44:42;1.77;;;1.17;;
16352;SDS011;8286;51.274;9.542;2023-04-25T13:47:08;3.73;;;1.37;;
16352;SDS011;8286;51.274;9.542;2023-04-25T13:49:35;2.50;;;1.50;;
16352;SDS011;8286;51.274;9.542;2023-04-25T13:52:03;1.77;;;1.50;;
16352;SDS011;8286;51.274;9.542;2023-04-25T13:54:30;3.67;;;1.40;;
16352;SDS011;8286;51.274;9.542;2023-04-25T13:56:56;2.23;;;1.30;;
16352;SDS011;8286;51.274;9.542;2023-04-25T13:59:24;3.97;;;1.43;;
16352;SDS011;8286;51.274;9.542;2023-04-25T14:01:50;5.47;;;1.57;;
16352;SDS011;8286;51.274;9.542;2023-04-25T14:04:17;2.87;;;1.60;;
16352;SDS011;8286;51.274;9.542;2023-04-25T14:06:43;3.60;;;1.90;;
16352;SDS011;8286;51.274;9.542;2023-04-25T14:09:11;3.10;;;1.70;;
16352;SDS011;8286;51.274;9.542;2023-04-25T14:11:38;3.00;;;1.60;;
16352;SDS011;8286;51.274;9.542;2023-04-25T14:14:05;6.37;;;1.43;;
16352;SDS011;8286;51.274;9.542;2023-04-25T14:16:31;6.47;;;1.93;;
16352;SDS011;8286;51.274;9.542;2023-04-25T14:18:58;2.10;;;1.83;;
16352;SDS011;8286;51.274;9.542;2023-04-25T14:21:25;3.03;;;1.57;;
16352;SDS011;8286;51.274;9.542;2023-04-25T14:23:51;1.80;;;1.50;;
16352;SDS011;8286;51.274;9.542;2023-04-25T14:26:19;3.17;;;1.37;;
16352;SDS011;8286;51.274;9.542;2023-04-25T14:28:46;2.63;;;1.93;;
16352;SDS011;8286;51.274;9.542;2023-04-25T14:31:12;2.37;;;1.67;;
16352;SDS011;8286;51.274;9.542;2023-04-25T14:33:39;1.40;;;1.30;;
16352;SDS011;8286;51.274;9.542;2023-04-25T14:36:07;3.80;;;1.47;;
16352;SDS011;8286;51.274;9.542;2023-04-25T14:38:34;2.30;;;1.50;;
16352;SDS011;8286;51.274;9.542;2023-04-25T14:41:04;6.97;;;2.03;;
16352;SDS011;8286;51.274;9.542;2023-04-25T14:46:54;2.40;;;1.27;;
16352;SDS011;8286;51.274;9.542;2023-04-25T14:49:54;3.33;;;1.40;;
16352;SDS011;8286;51.274;9.542;2023-04-25T14:52:20;5.90;;;1.80;;
16352;SDS011;8286;51.274;9.542;2023-04-25T14:54:47;8.10;;;1.53;;
16352;SDS011;8286;51.274;9.542;2023-04-25T14:57:13;3.87;;;1.40;;
16352;SDS011;8286;51.274;9.542;2023-04-25T14:59:41;1.10;;;1.10;;
16352;SDS011;8286;51.274;9.542;2023-04-25T15:02:08;2.00;;;1.33;;
16352;SDS011;8286;51.274;9.542;2023-04-25T15:04:34;2.47;;;1.10;;